Barras, Brazil
Current Conditions -  °F | °C
As of 3:00 PM on Tuesday 21 Oct 2014 (Local Time) from SBTE Reporting Station
Clear Clear  
Wind Chill: 97°   Ceiling: Unl
Heat Index: 103°   Visibility: 6mi
Dew Point: 70°   Wind: 2mph
Humidity: 41%   Direction: 280°W
Pressure: 29.77"   Gusts: NA
Location:  4.24°S, 42.29°W
Report Text: SBTE 211800Z 28002KT CAVOK 36/21 Q1008
Loading
Personal Weather Stations






























Interactive Weather Map New forecast layout! Learn more

10-Day Weather Forecast

Advertisements
Track Severe Weather on mobile